createdAt,value
2022-11-06T00:02:47.955Z,6.91
2022-11-06T00:08:12.590Z,6.89
2022-11-06T00:13:37.109Z,6.76
2022-11-06T00:19:05.399Z,6.70
2022-11-06T00:24:31.407Z,6.73
2022-11-06T00:29:58.453Z,6.76
2022-11-06T00:35:23.423Z,6.82
2022-11-06T00:40:45.891Z,6.84
2022-11-06T00:46:15.036Z,6.89
2022-11-06T00:51:43.692Z,6.99
2022-11-06T00:57:10.105Z,7.14
2022-11-06T01:02:57.626Z,7.27
2022-11-06T01:08:27.143Z,7.35
2022-11-06T01:13:55.337Z,7.30
2022-11-06T01:19:36.274Z,7.23
2022-11-06T01:25:22.324Z,7.21
2022-11-06T01:30:44.618Z,7.20
2022-11-06T01:36:10.401Z,7.23
2022-11-06T01:41:41.896Z,7.32
2022-11-06T01:47:18.417Z,7.38
2022-11-06T01:52:41.908Z,7.34
2022-11-06T01:58:08.329Z,7.23
2022-11-06T02:03:43.647Z,7.14
2022-11-06T02:09:15.120Z,7.04
2022-11-06T02:14:51.538Z,6.96
2022-11-06T02:20:26.585Z,6.95
2022-11-06T02:26:06.366Z,6.85
2022-11-06T02:31:35.773Z,6.74
2022-11-06T02:37:12.993Z,6.64
2022-11-06T02:42:42.821Z,6.51
2022-11-06T02:48:09.746Z,6.38
2022-11-06T02:53:56.689Z,6.29
2022-11-06T02:59:35.325Z,6.13
2022-11-06T03:05:14.229Z,6.06
2022-11-06T03:17:32.691Z,6.02
2022-11-06T03:30:40.280Z,6.23
2022-11-06T03:49:11.522Z,6.35
2022-11-06T03:55:08.897Z,6.34
2022-11-06T04:06:47.751Z,6.24
2022-11-06T04:12:32.901Z,6.19
2022-11-06T04:18:11.201Z,6.14
2022-11-06T04:24:00.787Z,6.12
2022-11-06T04:30:00.695Z,5.87
2022-11-06T04:35:59.742Z,5.67
2022-11-06T04:42:11.002Z,5.60
2022-11-06T04:47:44.785Z,5.64
2022-11-06T04:53:09.533Z,5.66
2022-11-06T04:58:32.345Z,5.59
2022-11-06T05:03:57.056Z,5.49
2022-11-06T05:09:23.225Z,5.37
2022-11-06T05:14:49.011Z,5.24
2022-11-06T05:20:11.495Z,5.07
2022-11-06T05:25:38.040Z,4.80
2022-11-06T05:31:00.396Z,4.48
2022-11-06T05:36:23.000Z,4.17
2022-11-06T05:41:46.134Z,4.09
2022-11-06T05:47:10.958Z,4.22
2022-11-06T05:52:35.502Z,4.34
2022-11-06T05:57:59.971Z,4.36
2022-11-06T06:03:23.364Z,4.44
2022-11-06T06:08:51.455Z,4.53
2022-11-06T06:14:21.726Z,4.62
2022-11-06T06:19:44.556Z,4.67
2022-11-06T06:25:22.416Z,4.72
2022-11-06T06:30:45.703Z,4.78
2022-11-06T06:36:12.383Z,4.81
2022-11-06T06:41:42.188Z,4.83
2022-11-06T06:47:26.900Z,4.82
2022-11-06T06:52:55.911Z,4.78
2022-11-06T06:58:21.344Z,4.63
2022-11-06T07:03:44.574Z,4.68
2022-11-06T07:09:08.255Z,4.78
2022-11-06T07:14:36.873Z,4.94
2022-11-06T07:19:59.959Z,5.18
2022-11-06T07:25:22.154Z,5.38
2022-11-06T07:30:44.505Z,5.47
2022-11-06T07:36:14.936Z,5.55
2022-11-06T07:41:40.122Z,5.68
2022-11-06T07:47:09.496Z,5.80
2022-11-06T07:52:35.611Z,6.01
2022-11-06T07:58:00.778Z,6.27
2022-11-06T08:03:27.468Z,6.51
2022-11-06T08:08:57.692Z,6.65
2022-11-06T08:14:23.438Z,6.59
2022-11-06T08:19:45.856Z,6.32
2022-11-06T08:25:10.843Z,6.14
2022-11-06T08:30:39.579Z,6.18
2022-11-06T08:36:07.638Z,6.25
2022-11-06T08:41:30.030Z,6.54
2022-11-06T08:46:57.182Z,6.90
2022-11-06T08:52:26.739Z,7.13
2022-11-06T08:57:51.354Z,6.91
2022-11-06T09:03:18.260Z,6.76
2022-11-06T09:08:40.936Z,6.89
2022-11-06T09:14:07.160Z,7.17
2022-11-06T09:19:29.752Z,7.60
2022-11-06T09:25:04.930Z,7.79
2022-11-06T09:30:30.573Z,7.95
2022-11-06T09:36:55.805Z,8.23
2022-11-06T09:44:08.201Z,8.63
2022-11-06T09:50:51.536Z,8.91
2022-11-06T09:57:38.265Z,9.29
2022-11-06T10:04:33.635Z,9.44
2022-11-06T10:10:40.728Z,9.62
2022-11-06T10:16:51.923Z,9.94
2022-11-06T10:22:39.804Z,10.19
2022-11-06T10:28:14.491Z,10.38
2022-11-06T10:33:53.967Z,10.42
2022-11-06T10:39:29.618Z,10.49
2022-11-06T10:45:11.740Z,10.59
2022-11-06T11:21:45.005Z,10.05
2022-11-06T11:39:39.145Z,10.72
2022-11-06T11:52:00.577Z,11.17
2022-11-06T11:58:46.211Z,11.27
2022-11-06T12:04:52.540Z,11.09
2022-11-06T12:10:35.726Z,11.09
2022-11-06T12:16:12.185Z,11.05
2022-11-06T12:21:42.661Z,11.02
2022-11-06T12:27:21.869Z,10.89
2022-11-06T12:33:16.817Z,10.72
2022-11-06T12:38:50.168Z,10.54
2022-11-06T12:44:16.265Z,10.40
2022-11-06T12:49:51.015Z,10.38
2022-11-06T12:55:29.766Z,10.51
2022-11-06T13:01:24.661Z,10.76
2022-11-06T13:07:21.270Z,11.07
2022-11-06T13:13:15.128Z,11.14
2022-11-06T13:19:05.882Z,11.18
2022-11-06T13:24:41.262Z,11.55
2022-11-06T13:30:24.575Z,11.82
2022-11-06T13:35:49.930Z,12.06
2022-11-06T13:41:36.888Z,12.62
2022-11-06T13:47:13.320Z,13.30
2022-11-06T13:52:48.139Z,13.97
2022-11-06T13:58:20.055Z,14.52
2022-11-06T14:03:58.379Z,14.90
2022-11-06T14:09:31.083Z,15.08
2022-11-06T14:15:15.289Z,15.04
2022-11-06T14:20:41.024Z,14.95
2022-11-06T14:26:57.143Z,14.64
2022-11-06T14:32:19.143Z,14.15
2022-11-06T14:37:44.218Z,13.80
2022-11-06T14:43:23.092Z,13.48
2022-11-06T14:48:50.925Z,13.15
2022-11-06T14:54:24.955Z,12.88
2022-11-06T14:59:52.037Z,12.51
2022-11-06T15:06:02.366Z,12.07
2022-11-06T15:11:30.466Z,11.61
2022-11-06T15:17:13.148Z,11.28
2022-11-06T15:22:47.856Z,11.00
2022-11-06T15:28:22.216Z,10.73
2022-11-06T15:34:44.887Z,10.51
2022-11-06T15:40:35.609Z,10.22
2022-11-06T15:46:23.194Z,10.05
2022-11-06T15:52:56.183Z,10.09
2022-11-06T15:59:07.302Z,10.23
2022-11-06T16:05:00.766Z,10.25
2022-11-06T16:10:58.473Z,10.03
2022-11-06T16:23:36.099Z,9.45
2022-11-06T16:35:42.467Z,9.06
2022-11-06T16:47:50.590Z,8.91
2022-11-06T17:06:19.818Z,7.96
2022-11-06T17:12:42.014Z,7.75
2022-11-06T17:18:04.292Z,7.59
2022-11-06T17:23:30.824Z,7.46
2022-11-06T17:28:52.685Z,7.35
2022-11-06T17:35:16.780Z,7.21
2022-11-06T17:41:02.400Z,7.14
2022-11-06T17:46:29.293Z,7.07
2022-11-06T17:51:58.584Z,7.01
2022-11-06T17:57:24.197Z,7.03
2022-11-06T18:03:02.455Z,7.05
2022-11-06T18:08:24.929Z,7.05
2022-11-06T18:13:49.688Z,7.01
2022-11-06T18:19:15.397Z,7.01
2022-11-06T18:24:38.623Z,7.02
2022-11-06T18:30:01.498Z,6.94
2022-11-06T18:35:24.254Z,6.87
2022-11-06T18:40:51.447Z,6.86
2022-11-06T18:46:18.639Z,6.87
2022-11-06T18:52:57.369Z,6.83
2022-11-06T18:58:40.731Z,6.81
2022-11-06T19:04:04.755Z,6.77
2022-11-06T19:09:39.023Z,6.77
2022-11-06T19:15:11.699Z,6.78
2022-11-06T19:20:35.326Z,6.81
2022-11-06T19:26:10.672Z,6.83
2022-11-06T19:31:40.084Z,6.81
2022-11-06T19:37:05.702Z,6.83
2022-11-06T19:42:50.922Z,6.82
2022-11-06T19:48:22.231Z,6.79
2022-11-06T20:12:49.562Z,7.32
2022-11-06T20:51:42.953Z,8.67
2022-11-06T20:57:16.581Z,8.72
2022-11-06T21:03:03.219Z,8.61
2022-11-06T21:08:53.459Z,8.53
2022-11-06T21:15:00.912Z,8.53
2022-11-06T21:20:34.798Z,8.53
2022-11-06T21:26:25.067Z,8.58
2022-11-06T21:31:57.262Z,8.62
2022-11-06T21:37:48.697Z,8.59
2022-11-06T21:43:15.652Z,8.58
2022-11-06T21:48:58.165Z,8.57
2022-11-06T21:54:46.114Z,8.63
2022-11-06T22:00:31.472Z,8.63
2022-11-06T22:06:20.951Z,8.53
2022-11-06T22:12:28.352Z,8.56
2022-11-06T22:18:25.494Z,8.69
2022-11-06T22:24:19.119Z,8.75
2022-11-06T22:30:13.457Z,8.78
2022-11-06T22:36:16.779Z,8.88
2022-11-06T22:42:29.737Z,8.91
2022-11-06T22:48:05.673Z,8.93
2022-11-06T22:54:10.924Z,9.00
2022-11-06T22:59:41.853Z,9.02
2022-11-06T23:05:25.031Z,9.02
2022-11-06T23:10:51.988Z,9.05
2022-11-06T23:17:12.744Z,9.09
2022-11-06T23:22:41.425Z,9.14
2022-11-06T23:28:35.796Z,9.10
2022-11-06T23:34:01.103Z,9.07
2022-11-06T23:39:33.945Z,9.08
2022-11-06T23:45:23.831Z,9.09
2022-11-06T23:51:34.482Z,9.05
2022-11-06T23:57:59.690Z,9.04
